createdAt,value
2017-11-12T00:01:30.002Z,6.78
2017-11-12T00:03:57.628Z,5.40
2017-11-12T00:06:25.271Z,7.18
2017-11-12T00:08:52.902Z,7.90
2017-11-12T00:11:20.552Z,11.88
2017-11-12T00:13:48.171Z,5.05
2017-11-12T00:16:15.776Z,8.70
2017-11-12T00:18:43.418Z,6.60
2017-11-12T00:21:11.028Z,5.75
2017-11-12T00:23:39.432Z,4.78
2017-11-12T00:26:07.081Z,5.18
2017-11-12T00:28:34.735Z,4.93
2017-11-12T00:31:02.349Z,5.20
2017-11-12T00:33:29.968Z,6.07
2017-11-12T00:35:58.383Z,6.70
2017-11-12T00:38:25.995Z,6.10
2017-11-12T00:40:53.643Z,5.20
2017-11-12T00:43:21.263Z,5.97
2017-11-12T00:45:48.908Z,7.82
2017-11-12T00:48:16.561Z,4.97
2017-11-12T00:50:44.942Z,5.90
2017-11-12T00:53:12.584Z,5.53
2017-11-12T00:55:40.992Z,5.90
2017-11-12T00:58:08.641Z,7.00
2017-11-12T01:00:36.276Z,6.80
2017-11-12T01:03:03.929Z,7.62
2017-11-12T01:05:31.667Z,7.85
2017-11-12T01:07:59.278Z,5.97
2017-11-12T01:10:27.696Z,6.28
2017-11-12T01:12:55.328Z,6.55
2017-11-12T01:15:22.992Z,5.90
2017-11-12T01:17:50.610Z,6.80
2017-11-12T01:20:18.260Z,8.02
2017-11-12T01:22:45.874Z,5.00
2017-11-12T01:25:14.258Z,6.60
2017-11-12T01:27:41.922Z,4.95
2017-11-12T01:30:09.544Z,5.82
2017-11-12T01:32:37.187Z,7.35
2017-11-12T01:35:04.799Z,5.00
2017-11-12T01:37:32.452Z,7.57
2017-11-12T01:40:00.096Z,9.25
2017-11-12T01:42:27.744Z,5.62
2017-11-12T01:44:55.366Z,4.72
2017-11-12T01:47:22.989Z,8.57
2017-11-12T01:49:50.691Z,5.10
2017-11-12T01:52:18.310Z,6.30
2017-11-12T01:54:45.956Z,6.40
2017-11-12T01:57:13.575Z,7.75
2017-11-12T01:59:41.228Z,6.30
2017-11-12T02:02:08.844Z,6.32
2017-11-12T02:04:36.461Z,6.45
2017-11-12T02:07:04.122Z,5.20
2017-11-12T02:09:32.504Z,7.72
2017-11-12T02:12:00.169Z,7.93
2017-11-12T02:14:27.784Z,7.35
2017-11-12T02:16:56.199Z,9.20
2017-11-12T02:19:23.816Z,7.37
2017-11-12T02:21:51.427Z,7.22
2017-11-12T02:24:19.063Z,4.82
2017-11-12T02:26:46.675Z,6.12
2017-11-12T02:29:14.636Z,5.53
2017-11-12T02:31:42.254Z,5.12
2017-11-12T02:34:09.899Z,6.35
2017-11-12T02:36:37.527Z,7.12
2017-11-12T02:39:05.145Z,7.78
2017-11-12T02:41:32.809Z,4.93
2017-11-12T02:44:01.188Z,5.70
2017-11-12T02:46:28.845Z,4.12
2017-11-12T02:48:56.459Z,5.47
2017-11-12T02:51:24.075Z,4.40
2017-11-12T02:53:51.724Z,4.47
2017-11-12T02:56:19.334Z,4.28
2017-11-12T02:58:46.983Z,7.18
2017-11-12T03:01:14.600Z,8.30
2017-11-12T03:03:42.992Z,8.15
2017-11-12T03:06:10.644Z,5.37
2017-11-12T03:08:38.266Z,6.12
2017-11-12T03:11:06.676Z,7.05
2017-11-12T03:13:34.288Z,6.18
2017-11-12T03:16:01.899Z,6.50
2017-11-12T03:18:29.545Z,5.90
2017-11-12T03:20:57.163Z,8.50
2017-11-12T03:23:24.823Z,7.43
2017-11-12T03:25:52.443Z,5.43
2017-11-12T03:28:20.060Z,5.95
2017-11-12T03:30:47.721Z,7.00
2017-11-12T03:33:15.341Z,7.82
2017-11-12T03:35:43.763Z,4.80
2017-11-12T03:38:11.381Z,5.90
2017-11-12T03:40:38.993Z,4.07
2017-11-12T03:43:07.405Z,3.33
2017-11-12T03:45:35.040Z,7.30
2017-11-12T03:48:02.693Z,8.07
2017-11-12T03:50:30.320Z,6.43
2017-11-12T03:52:57.936Z,6.70
2017-11-12T03:55:26.396Z,4.62
2017-11-12T03:57:54.014Z,8.55
2017-11-12T04:00:21.677Z,6.68
2017-11-12T04:02:49.300Z,5.18
2017-11-12T04:05:16.957Z,7.50
2017-11-12T04:07:44.569Z,5.28
2017-11-12T04:10:12.194Z,5.62
2017-11-12T04:12:40.600Z,8.15
2017-11-12T04:15:08.215Z,5.78
2017-11-12T04:17:35.862Z,6.93
2017-11-12T04:20:03.529Z,5.62
2017-11-12T04:22:31.185Z,11.68
2017-11-12T04:24:58.795Z,9.48
2017-11-12T04:27:26.421Z,8.27
2017-11-12T04:29:54.060Z,5.75
2017-11-12T04:32:21.675Z,8.07
2017-11-12T04:34:49.317Z,6.97
2017-11-12T04:37:16.933Z,8.38
2017-11-12T04:39:44.576Z,6.97
2017-11-12T04:42:12.192Z,8.65
2017-11-12T04:44:39.810Z,6.82
2017-11-12T04:47:07.475Z,9.23
2017-11-12T04:49:35.084Z,9.35
2017-11-12T04:52:02.731Z,10.63
2017-11-12T04:54:30.351Z,7.65
2017-11-12T04:56:58.011Z,11.70
2017-11-12T04:59:25.641Z,8.15
2017-11-12T05:01:54.045Z,8.60
2017-11-12T05:04:21.698Z,10.45
2017-11-12T05:06:49.315Z,10.07
2017-11-12T05:09:16.959Z,8.05
2017-11-12T05:11:44.568Z,7.25
2017-11-12T05:14:12.215Z,8.38
2017-11-12T05:16:39.832Z,6.20
2017-11-12T05:19:07.449Z,8.75
2017-11-12T05:21:35.104Z,7.90
2017-11-12T05:24:02.726Z,8.02
2017-11-12T05:26:30.385Z,9.90
2017-11-12T05:28:57.996Z,6.90
2017-11-12T05:31:26.411Z,10.90
2017-11-12T05:33:54.031Z,9.75
2017-11-12T05:36:21.645Z,8.60
2017-11-12T05:38:49.301Z,11.68
2017-11-12T05:41:17.701Z,10.15
2017-11-12T05:43:45.344Z,8.07
2017-11-12T05:46:12.976Z,9.02
2017-11-12T05:48:40.632Z,7.78
2017-11-12T05:51:08.249Z,6.47
2017-11-12T05:53:36.641Z,6.53
2017-11-12T05:56:04.292Z,6.45
2017-11-12T05:58:31.935Z,5.45
2017-11-12T06:00:59.574Z,7.47
2017-11-12T06:03:27.191Z,10.82
2017-11-12T06:05:54.837Z,5.57
2017-11-12T06:08:22.474Z,6.50
2017-11-12T06:10:50.104Z,7.00
2017-11-12T06:13:17.755Z,6.65
2017-11-12T06:15:45.371Z,8.20
2017-11-12T06:18:13.012Z,9.93
2017-11-12T06:20:40.622Z,5.97
2017-11-12T06:23:09.031Z,9.63
2017-11-12T06:25:36.652Z,8.32
2017-11-12T06:28:04.374Z,9.32
2017-11-12T06:30:32.016Z,8.65
2017-11-12T06:32:59.639Z,8.73
2017-11-12T06:35:27.283Z,6.68
2017-11-12T06:37:54.898Z,10.93
2017-11-12T06:40:22.539Z,7.35
2017-11-12T06:42:50.156Z,10.98
2017-11-12T06:45:18.124Z,9.27
2017-11-12T06:47:46.538Z,6.35
2017-11-12T06:50:14.147Z,9.10
2017-11-12T06:52:41.832Z,8.45
2017-11-12T06:55:09.466Z,10.07
2017-11-12T06:57:37.115Z,11.32
2017-11-12T07:00:04.803Z,10.25
2017-11-12T07:02:32.621Z,9.30
2017-11-12T07:05:00.268Z,11.38
2017-11-12T07:07:27.886Z,9.02
2017-11-12T07:09:55.538Z,11.82
2017-11-12T07:12:23.156Z,12.85
2017-11-12T07:14:51.764Z,8.85
2017-11-12T07:17:19.381Z,7.95
2017-11-12T07:19:47.825Z,9.35
2017-11-12T07:22:16.280Z,9.32
2017-11-12T07:24:43.883Z,8.30
2017-11-12T07:27:11.608Z,7.70
2017-11-12T07:29:39.223Z,5.90
2017-11-12T07:32:06.880Z,5.95
2017-11-12T07:34:35.473Z,6.97
2017-11-12T07:37:03.691Z,7.70
2017-11-12T07:39:31.392Z,7.28
2017-11-12T07:42:00.064Z,8.32
2017-11-12T07:44:28.340Z,9.80
2017-11-12T07:46:55.967Z,11.82
2017-11-12T07:49:23.644Z,9.20
2017-11-12T07:51:51.295Z,6.80
2017-11-12T07:54:18.946Z,6.80
2017-11-12T07:56:46.599Z,6.25
2017-11-12T07:59:14.226Z,5.80
2017-11-12T08:01:41.890Z,5.32
2017-11-12T08:04:09.526Z,6.95
2017-11-12T08:06:37.227Z,6.95
2017-11-12T08:09:04.862Z,5.35
2017-11-12T08:11:32.544Z,13.50
2017-11-12T08:14:00.198Z,7.15
2017-11-12T08:16:27.969Z,7.03
2017-11-12T08:18:55.651Z,6.03
2017-11-12T08:21:24.032Z,6.68
2017-11-12T08:23:51.707Z,6.80
2017-11-12T08:26:19.363Z,6.20
2017-11-12T08:28:47.046Z,7.87
2017-11-12T08:31:14.713Z,6.93
2017-11-12T08:33:43.131Z,6.78
2017-11-12T08:36:10.800Z,7.90
2017-11-12T08:38:38.428Z,5.43
2017-11-12T08:41:06.289Z,7.32
2017-11-12T08:43:33.936Z,8.15
2017-11-12T08:46:01.585Z,7.60
2017-11-12T08:48:29.439Z,6.25
2017-11-12T08:50:57.138Z,6.30
2017-11-12T08:53:24.871Z,8.50
2017-11-12T08:55:52.509Z,6.40
2017-11-12T08:58:20.167Z,6.95
2017-11-12T09:00:48.827Z,7.35
2017-11-12T09:03:17.254Z,6.72
2017-11-12T09:05:44.899Z,6.22
2017-11-12T09:08:12.512Z,7.97
2017-11-12T09:10:40.161Z,7.30
2017-11-12T09:13:08.399Z,11.18
2017-11-12T09:15:37.004Z,6.22
2017-11-12T09:18:04.622Z,5.60
2017-11-12T09:20:32.276Z,8.77
2017-11-12T09:22:59.896Z,8.00
2017-11-12T09:25:28.283Z,6.18
2017-11-12T09:27:55.931Z,7.65
2017-11-12T09:30:23.562Z,5.80
2017-11-12T09:32:51.984Z,6.20
2017-11-12T09:35:19.650Z,9.75
2017-11-12T09:37:48.058Z,6.10
2017-11-12T09:40:15.684Z,6.78
2017-11-12T09:42:43.308Z,5.45
2017-11-12T09:45:10.956Z,5.95
2017-11-12T09:47:39.328Z,8.50
2017-11-12T09:50:07.731Z,4.72
2017-11-12T09:52:35.342Z,7.25
2017-11-12T09:55:03.176Z,7.97
2017-11-12T09:57:30.795Z,4.37
2017-11-12T09:59:58.431Z,8.43
2017-11-12T10:02:26.165Z,7.10
2017-11-12T10:04:53.794Z,7.18
2017-11-12T10:07:21.443Z,8.32
2017-11-12T10:09:49.062Z,7.15
2017-11-12T10:12:17.467Z,3.83
2017-11-12T10:14:45.599Z,5.10
2017-11-12T10:17:13.976Z,4.65
2017-11-12T10:19:41.682Z,7.40
2017-11-12T10:22:11.540Z,5.12
2017-11-12T10:24:39.179Z,5.95
2017-11-12T10:27:06.792Z,7.50
2017-11-12T10:29:35.201Z,5.68
2017-11-12T10:32:02.827Z,4.65
2017-11-12T10:34:30.436Z,7.00
2017-11-12T10:36:59.663Z,4.97
2017-11-12T10:39:27.309Z,5.40
2017-11-12T10:41:54.947Z,4.12
2017-11-12T10:44:22.571Z,3.87
2017-11-12T10:46:50.986Z,5.37
2017-11-12T10:49:18.608Z,8.32
2017-11-12T10:51:46.235Z,6.22
2017-11-12T10:54:13.938Z,12.07
2017-11-12T10:56:41.568Z,4.70
2017-11-12T10:59:09.224Z,5.18
2017-11-12T11:01:36.842Z,6.03
2017-11-12T11:04:04.502Z,3.87
2017-11-12T11:06:32.124Z,4.43
2017-11-12T11:08:59.763Z,6.50
2017-11-12T11:11:28.203Z,5.97
2017-11-12T11:13:55.819Z,3.95
2017-11-12T11:16:23.481Z,4.90
2017-11-12T11:18:51.093Z,4.40
2017-11-12T11:21:18.737Z,2.70
2017-11-12T11:23:46.355Z,3.12
2017-11-12T11:26:14.743Z,4.50
2017-11-12T11:28:42.416Z,1.77
2017-11-12T11:31:10.024Z,3.92
2017-11-12T11:33:37.671Z,7.50
2017-11-12T11:36:05.332Z,5.47
2017-11-12T11:38:32.977Z,6.50
2017-11-12T11:41:00.614Z,4.37
2017-11-12T11:43:29.070Z,3.05
2017-11-12T11:45:57.508Z,3.35
2017-11-12T11:48:25.186Z,2.55
2017-11-12T11:50:52.868Z,2.97
2017-11-12T11:53:20.497Z,2.40
2017-11-12T11:55:48.148Z,2.83
2017-11-12T11:58:15.774Z,3.70
2017-11-12T12:00:43.468Z,3.90
2017-11-12T12:03:11.180Z,4.05
2017-11-12T12:05:38.813Z,3.58
2017-11-12T12:08:06.475Z,3.67
2017-11-12T12:10:34.148Z,7.57
2017-11-12T12:13:02.116Z,4.15
2017-11-12T12:15:29.739Z,3.55
2017-11-12T12:17:57.485Z,4.32
2017-11-12T12:20:25.205Z,4.28
2017-11-12T12:22:52.886Z,4.87
2017-11-12T12:25:20.533Z,4.25
2017-11-12T12:27:49.054Z,4.35
2017-11-12T12:30:16.753Z,5.57
2017-11-12T12:32:44.445Z,4.55
2017-11-12T12:35:12.124Z,5.72
2017-11-12T12:40:13.578Z,3.67
2017-11-12T12:42:41.227Z,3.87
2017-11-12T12:45:08.857Z,4.57
2017-11-12T12:47:36.597Z,4.97
2017-11-12T12:50:04.224Z,4.68
2017-11-12T12:52:32.429Z,4.50
2017-11-12T12:55:00.071Z,4.80
2017-11-12T12:57:27.686Z,4.40
2017-11-12T12:59:55.334Z,3.70
2017-11-12T13:02:22.949Z,3.58
2017-11-12T13:04:50.668Z,3.75
2017-11-12T13:07:18.275Z,3.42
2017-11-12T13:09:45.886Z,4.87
2017-11-12T13:12:13.541Z,3.70
2017-11-12T13:14:41.919Z,3.28
2017-11-12T13:17:09.595Z,3.08
2017-11-12T13:19:37.209Z,3.47
2017-11-12T13:22:05.636Z,6.65
2017-11-12T13:24:33.250Z,3.37
2017-11-12T13:27:00.875Z,7.55
2017-11-12T13:29:29.294Z,5.03
2017-11-12T13:31:56.916Z,3.97
2017-11-12T13:34:24.563Z,3.45
2017-11-12T13:36:52.199Z,3.22
2017-11-12T13:39:19.883Z,4.15
2017-11-12T13:41:47.500Z,3.67
2017-11-12T13:44:15.106Z,3.62
2017-11-12T13:46:43.711Z,2.80
2017-11-12T13:49:11.356Z,6.12
2017-11-12T13:51:39.021Z,2.35
2017-11-12T13:54:06.672Z,4.00
2017-11-12T13:56:34.373Z,2.53
2017-11-12T13:59:02.810Z,5.57
2017-11-12T14:01:30.423Z,4.22
2017-11-12T14:03:58.082Z,7.35
2017-11-12T14:06:25.694Z,5.93
2017-11-12T14:08:53.331Z,3.53
2017-11-12T14:11:20.958Z,3.03
2017-11-12T14:13:49.358Z,3.95
2017-11-12T14:16:16.972Z,5.25
2017-11-12T14:18:45.367Z,5.37
2017-11-12T14:21:13.012Z,3.90
2017-11-12T14:23:41.371Z,3.97
2017-11-12T14:26:09.053Z,3.75
2017-11-12T14:28:36.667Z,4.07
2017-11-12T14:31:04.409Z,4.85
2017-11-12T14:33:32.036Z,3.72
2017-11-12T14:36:00.432Z,7.55
2017-11-12T14:38:28.075Z,4.28
2017-11-12T14:40:55.736Z,4.68
2017-11-12T14:43:23.455Z,3.90
2017-11-12T14:45:51.469Z,5.53
2017-11-12T14:48:19.155Z,4.47
2017-11-12T14:50:46.779Z,6.03
2017-11-12T14:53:15.147Z,3.30
2017-11-12T14:55:43.558Z,6.75
2017-11-12T14:58:11.214Z,4.85
2017-11-12T15:00:38.867Z,9.00
2017-11-12T15:03:06.513Z,5.20
2017-11-12T15:05:34.159Z,9.60
2017-11-12T15:08:01.791Z,9.13
2017-11-12T15:10:29.474Z,7.20
2017-11-12T15:12:57.932Z,7.45
2017-11-12T15:15:25.563Z,7.20
2017-11-12T15:17:53.223Z,5.72
2017-11-12T15:20:21.401Z,6.20
2017-11-12T15:22:49.880Z,9.15
2017-11-12T15:25:18.263Z,5.25
2017-11-12T15:27:45.876Z,6.78
2017-11-12T15:30:13.515Z,7.22
2017-11-12T15:32:41.126Z,4.35
2017-11-12T15:35:08.885Z,4.80
2017-11-12T15:37:36.562Z,5.47
2017-11-12T15:40:04.290Z,4.55
2017-11-12T15:42:31.903Z,4.05
2017-11-12T15:44:59.520Z,3.92
2017-11-12T15:47:27.250Z,5.07
2017-11-12T15:49:54.919Z,4.43
2017-11-12T15:52:23.374Z,4.97
2017-11-12T15:54:51.838Z,4.43
2017-11-12T15:57:20.261Z,5.95
2017-11-12T15:59:47.921Z,5.03
2017-11-12T16:02:15.624Z,4.75
2017-11-12T16:04:43.243Z,6.00
2017-11-12T16:07:12.580Z,4.97
2017-11-12T16:09:40.539Z,5.10
2017-11-12T16:12:08.259Z,6.72
2017-11-12T16:14:35.929Z,5.75
2017-11-12T16:17:03.614Z,6.85
2017-11-12T16:19:31.263Z,4.50
2017-11-12T16:21:58.908Z,6.80
2017-11-12T16:24:26.562Z,6.28
2017-11-12T16:26:54.271Z,8.63
2017-11-12T16:29:21.920Z,8.95
2017-11-12T16:31:49.597Z,7.75
2017-11-12T16:34:17.220Z,7.70
2017-11-12T16:36:44.835Z,5.72
2017-11-12T16:39:12.483Z,6.97
2017-11-12T16:41:40.109Z,6.85
2017-11-12T16:44:08.573Z,7.28
2017-11-12T16:46:36.188Z,6.07
2017-11-12T16:49:03.799Z,6.87
2017-11-12T16:51:31.448Z,6.65
2017-11-12T16:53:59.190Z,5.15
2017-11-12T16:56:26.911Z,5.43
2017-11-12T16:58:54.587Z,8.50
2017-11-12T17:01:22.217Z,7.72
2017-11-12T17:03:50.551Z,7.78
2017-11-12T17:06:18.967Z,6.87
2017-11-12T17:08:46.682Z,8.02
2017-11-12T17:11:14.911Z,7.00
2017-11-12T17:13:42.846Z,10.35
2017-11-12T17:16:10.565Z,7.60
2017-11-12T17:18:38.197Z,7.97
2017-11-12T17:21:05.844Z,8.57
2017-11-12T17:23:33.534Z,8.50
2017-11-12T17:26:02.180Z,7.93
2017-11-12T17:28:29.843Z,9.65
2017-11-12T17:30:57.499Z,9.73
2017-11-12T17:33:25.173Z,10.55
2017-11-12T17:35:54.281Z,6.85
2017-11-12T17:38:21.908Z,8.70
2017-11-12T17:40:50.319Z,7.50
2017-11-12T17:43:17.955Z,9.50
2017-11-12T17:45:45.607Z,10.30
2017-11-12T17:48:13.251Z,11.77
2017-11-12T17:50:40.888Z,9.05
2017-11-12T17:53:08.533Z,7.53
2017-11-12T17:55:36.202Z,9.23
2017-11-12T17:58:03.838Z,9.48
2017-11-12T18:00:31.485Z,9.27
2017-11-12T18:02:59.125Z,8.45
2017-11-12T18:05:26.845Z,9.30
2017-11-12T18:07:54.491Z,8.48
2017-11-12T18:10:22.935Z,9.07
2017-11-12T18:12:50.577Z,9.57
2017-11-12T18:15:18.204Z,9.68
2017-11-12T18:17:45.864Z,9.50
2017-11-12T18:20:15.996Z,8.68
2017-11-12T18:22:43.914Z,10.63
2017-11-12T18:25:11.908Z,10.80
2017-11-12T18:27:54.610Z,10.27
2017-11-12T18:30:22.950Z,9.35
2017-11-12T18:32:50.588Z,10.98
2017-11-12T18:35:18.210Z,10.00
2017-11-12T18:37:45.827Z,8.90
2017-11-12T18:40:13.537Z,9.45
2017-11-12T18:42:41.387Z,12.48
2017-11-12T18:45:09.067Z,12.13
2017-11-12T18:47:37.007Z,12.20
2017-11-12T18:50:05.449Z,10.27
2017-11-12T18:52:33.087Z,7.97
2017-11-12T18:55:01.040Z,15.30
2017-11-12T18:57:36.495Z,13.62
2017-11-12T19:00:05.027Z,13.18
2017-11-12T19:02:38.383Z,10.30
2017-11-12T19:05:11.712Z,10.02
2017-11-12T19:07:39.408Z,12.10
2017-11-12T19:10:07.025Z,11.48
2017-11-12T19:12:34.666Z,9.05
2017-11-12T19:15:03.050Z,7.22
2017-11-12T19:17:30.893Z,7.65
2017-11-12T19:20:01.385Z,9.45
2017-11-12T19:22:29.793Z,6.70
2017-11-12T19:24:57.447Z,6.70
2017-11-12T19:27:25.079Z,7.87
2017-11-12T19:30:04.613Z,9.75
2017-11-12T19:32:32.235Z,7.82
2017-11-12T19:34:59.912Z,8.63
2017-11-12T19:37:27.555Z,9.52
2017-11-12T19:39:55.167Z,9.50
2017-11-12T19:42:23.539Z,10.60
2017-11-12T19:44:51.196Z,12.45
2017-11-12T19:47:18.836Z,13.32
2017-11-12T19:49:46.470Z,11.48
2017-11-12T19:52:15.767Z,10.40
2017-11-12T19:54:43.399Z,11.55
2017-11-12T19:57:12.011Z,13.32
2017-11-12T19:59:39.799Z,15.93
2017-11-12T20:02:07.476Z,14.32
2017-11-12T20:04:35.519Z,12.07
2017-11-12T20:07:03.954Z,14.05
2017-11-12T20:09:31.862Z,12.45
2017-11-12T20:11:59.553Z,12.68
2017-11-12T20:14:27.178Z,12.93
2017-11-12T20:16:54.971Z,12.02
2017-11-12T20:19:22.710Z,12.40
2017-11-12T20:21:50.970Z,13.02
2017-11-12T20:24:19.585Z,13.43
2017-11-12T20:26:47.344Z,10.43
2017-11-12T20:29:15.278Z,10.98
2017-11-12T20:31:42.992Z,13.52
2017-11-12T20:34:10.855Z,10.23
2017-11-12T20:36:38.617Z,13.62
2017-11-12T20:39:06.641Z,10.10
2017-11-12T20:41:34.252Z,8.35
2017-11-12T20:44:01.980Z,9.35
2017-11-12T20:46:29.640Z,10.32
2017-11-12T20:48:57.259Z,11.50
2017-11-12T20:51:25.674Z,8.90
2017-11-12T20:53:53.284Z,10.80
2017-11-12T20:56:20.919Z,11.90
2017-11-12T20:58:48.789Z,14.85
2017-11-12T21:01:17.368Z,11.18
2017-11-12T21:03:45.030Z,9.43
2017-11-12T21:06:16.464Z,7.53
2017-11-12T21:08:44.304Z,9.80
2017-11-12T21:11:11.997Z,11.45
2017-11-12T21:13:39.641Z,11.77
2017-11-12T21:16:07.285Z,10.75
2017-11-12T21:18:34.989Z,11.57
2017-11-12T21:21:07.559Z,15.80
2017-11-12T21:23:35.174Z,15.25
2017-11-12T21:26:02.991Z,16.00
2017-11-12T21:28:31.441Z,12.55
2017-11-12T21:30:59.580Z,12.25
2017-11-12T21:33:29.313Z,19.75
2017-11-12T21:36:00.415Z,16.52
2017-11-12T21:38:28.038Z,13.88
2017-11-12T21:40:55.690Z,13.88
2017-11-12T21:43:23.407Z,17.98
2017-11-12T21:45:51.031Z,12.98
2017-11-12T21:48:19.450Z,16.00
2017-11-12T21:50:47.066Z,17.40
2017-11-12T21:53:14.743Z,15.25
2017-11-12T21:55:42.410Z,17.77
2017-11-12T21:58:10.067Z,19.35
2017-11-12T22:00:37.738Z,15.18
2017-11-12T22:03:06.124Z,15.57
2017-11-12T22:05:33.783Z,14.15
2017-11-12T22:08:01.435Z,15.55
2017-11-12T22:10:29.236Z,19.98
2017-11-12T22:12:57.660Z,20.40
2017-11-12T22:15:25.287Z,19.75
2017-11-12T22:17:52.935Z,13.60
2017-11-12T22:20:20.561Z,17.30
2017-11-12T22:22:48.223Z,15.48
2017-11-12T22:25:15.870Z,14.05
2017-11-12T22:27:43.488Z,17.27
2017-11-12T22:30:11.143Z,15.00
2017-11-12T22:32:38.770Z,20.35
2017-11-12T22:35:07.151Z,19.15
2017-11-12T22:37:34.805Z,20.85
2017-11-12T22:40:02.428Z,17.62
2017-11-12T22:42:30.850Z,23.73
2017-11-12T22:44:58.484Z,13.80
2017-11-12T22:47:26.107Z,20.75
2017-11-12T22:49:53.755Z,16.77
2017-11-12T22:52:21.379Z,19.40
2017-11-12T22:54:49.820Z,13.82
2017-11-12T22:57:17.447Z,13.43
2017-11-12T22:59:45.082Z,12.10
2017-11-12T23:02:13.503Z,9.77
2017-11-12T23:04:41.881Z,8.55
2017-11-12T23:07:09.537Z,9.70
2017-11-12T23:09:37.167Z,10.48
2017-11-12T23:12:05.565Z,8.38
2017-11-12T23:14:33.316Z,12.88
2017-11-12T23:17:00.943Z,13.70
2017-11-12T23:19:28.612Z,15.80
2017-11-12T23:21:56.230Z,14.25
2017-11-12T23:24:23.889Z,16.00
2017-11-12T23:26:51.516Z,16.70
2017-11-12T23:29:19.152Z,14.35
2017-11-12T23:31:47.579Z,14.20
2017-11-12T23:34:15.200Z,19.42
2017-11-12T23:36:42.851Z,20.27
2017-11-12T23:39:10.515Z,20.37
2017-11-12T23:41:38.150Z,18.65
2017-11-12T23:44:05.813Z,18.77
2017-11-12T23:46:33.460Z,19.77
2017-11-12T23:49:01.117Z,15.73
2017-11-12T23:51:28.733Z,10.90
2017-11-12T23:53:56.356Z,14.20
2017-11-12T23:56:24.027Z,13.13
2017-11-12T23:58:51.647Z,12.35
